sensor_id;sensor_type;location;lat;lon;timestamp;P1;durP1;ratioP1;P2;durP2;ratioP2
63499;SDS011;49654;51.142;14.924;2023-02-18T00:00:58;7.47;;;4.30;;
63499;SDS011;49654;51.142;14.924;2023-02-18T00:03:25;6.75;;;3.72;;
63499;SDS011;49654;51.142;14.924;2023-02-18T00:05:55;7.85;;;4.13;;
63499;SDS011;49654;51.142;14.924;2023-02-18T00:08:22;9.43;;;4.68;;
63499;SDS011;49654;51.142;14.924;2023-02-18T00:10:50;9.90;;;3.75;;
63499;SDS011;49654;51.142;14.924;2023-02-18T00:13:17;6.47;;;3.58;;
63499;SDS011;49654;51.142;14.924;2023-02-18T00:15:44;7.10;;;3.00;;
63499;SDS011;49654;51.142;14.924;2023-02-18T00:18:11;3.83;;;2.70;;
63499;SDS011;49654;51.142;14.924;2023-02-18T00:20:38;4.80;;;2.40;;
63499;SDS011;49654;51.142;14.924;2023-02-18T00:23:06;4.43;;;2.17;;
63499;SDS011;49654;51.142;14.924;2023-02-18T00:25:33;4.10;;;1.38;;
63499;SDS011;49654;51.142;14.924;2023-02-18T00:28:00;3.95;;;1.42;;
63499;SDS011;49654;51.142;14.924;2023-02-18T00:30:27;4.50;;;1.48;;
63499;SDS011;49654;51.142;14.924;2023-02-18T00:32:54;4.38;;;1.35;;
63499;SDS011;49654;51.142;14.924;2023-02-18T00:35:21;6.70;;;1.10;;
63499;SDS011;49654;51.142;14.924;2023-02-18T00:37:49;2.70;;;1.35;;
63499;SDS011;49654;51.142;14.924;2023-02-18T00:40:18;2.80;;;1.35;;
63499;SDS011;49654;51.142;14.924;2023-02-18T00:42:46;6.25;;;1.52;;
63499;SDS011;49654;51.142;14.924;2023-02-18T00:45:13;5.30;;;1.17;;
63499;SDS011;49654;51.142;14.924;2023-02-18T00:47:40;4.13;;;1.35;;
63499;SDS011;49654;51.142;14.924;2023-02-18T00:50:07;2.92;;;1.02;;
63499;SDS011;49654;51.142;14.924;2023-02-18T00:52:35;3.00;;;1.05;;
63499;SDS011;49654;51.142;14.924;2023-02-18T00:55:02;4.07;;;1.17;;
63499;SDS011;49654;51.142;14.924;2023-02-18T00:57:31;3.05;;;1.20;;
63499;SDS011;49654;51.142;14.924;2023-02-18T00:59:57;4.53;;;1.40;;
63499;SDS011;49654;51.142;14.924;2023-02-18T01:02:24;5.15;;;1.40;;
63499;SDS011;49654;51.142;14.924;2023-02-18T01:04:51;4.45;;;1.20;;
63499;SDS011;49654;51.142;14.924;2023-02-18T01:07:18;5.13;;;1.33;;
63499;SDS011;49654;51.142;14.924;2023-02-18T01:09:45;5.45;;;1.17;;
63499;SDS011;49654;51.142;14.924;2023-02-18T01:12:12;4.53;;;1.33;;
63499;SDS011;49654;51.142;14.924;2023-02-18T01:14:41;2.83;;;0.80;;
63499;SDS011;49654;51.142;14.924;2023-02-18T01:17:07;2.88;;;1.00;;
63499;SDS011;49654;51.142;14.924;2023-02-18T01:19:34;2.22;;;1.10;;
63499;SDS011;49654;51.142;14.924;2023-02-18T01:22:01;2.58;;;1.05;;
63499;SDS011;49654;51.142;14.924;2023-02-18T01:24:28;4.20;;;1.13;;
63499;SDS011;49654;51.142;14.924;2023-02-18T01:26:55;2.90;;;0.93;;
63499;SDS011;49654;51.142;14.924;2023-02-18T01:29:22;3.33;;;1.13;;
63499;SDS011;49654;51.142;14.924;2023-02-18T01:31:51;2.20;;;0.85;;
63499;SDS011;49654;51.142;14.924;2023-02-18T01:34:17;3.10;;;0.95;;
63499;SDS011;49654;51.142;14.924;2023-02-18T01:36:44;3.53;;;1.80;;
63499;SDS011;49654;51.142;14.924;2023-02-18T01:39:11;3.15;;;1.30;;
63499;SDS011;49654;51.142;14.924;2023-02-18T01:41:38;2.55;;;0.88;;
63499;SDS011;49654;51.142;14.924;2023-02-18T01:44:12;5.60;;;1.00;;
63499;SDS011;49654;51.142;14.924;2023-02-18T01:46:41;3.63;;;0.90;;
63499;SDS011;49654;51.142;14.924;2023-02-18T01:49:09;3.90;;;0.82;;
63499;SDS011;49654;51.142;14.924;2023-02-18T01:51:40;3.03;;;0.85;;
63499;SDS011;49654;51.142;14.924;2023-02-18T01:54:12;1.85;;;0.82;;
63499;SDS011;49654;51.142;14.924;2023-02-18T01:56:44;2.58;;;0.98;;
63499;SDS011;49654;51.142;14.924;2023-02-18T01:59:17;1.98;;;0.80;;
63499;SDS011;49654;51.142;14.924;2023-02-18T02:01:49;5.55;;;0.70;;
63499;SDS011;49654;51.142;14.924;2023-02-18T02:04:18;2.53;;;0.90;;
63499;SDS011;49654;51.142;14.924;2023-02-18T02:06:46;3.22;;;0.80;;
63499;SDS011;49654;51.142;14.924;2023-02-18T02:09:13;1.20;;;0.60;;
63499;SDS011;49654;51.142;14.924;2023-02-18T02:11:51;2.25;;;0.80;;
63499;SDS011;49654;51.142;14.924;2023-02-18T02:14:32;2.20;;;0.60;;
63499;SDS011;49654;51.142;14.924;2023-02-18T02:17:11;3.13;;;0.90;;
63499;SDS011;49654;51.142;14.924;2023-02-18T02:20:00;1.05;;;0.77;;
63499;SDS011;49654;51.142;14.924;2023-02-18T02:23:07;3.17;;;0.80;;
63499;SDS011;49654;51.142;14.924;2023-02-18T02:28:57;4.32;;;0.88;;
63499;SDS011;49654;51.142;14.924;2023-02-18T02:31:37;2.28;;;0.75;;
63499;SDS011;49654;51.142;14.924;2023-02-18T02:34:28;2.65;;;0.90;;
63499;SDS011;49654;51.142;14.924;2023-02-18T02:37:05;2.55;;;0.82;;
63499;SDS011;49654;51.142;14.924;2023-02-18T02:39:40;3.33;;;0.70;;
63499;SDS011;49654;51.142;14.924;2023-02-18T02:42:25;5.40;;;1.00;;
63499;SDS011;49654;51.142;14.924;2023-02-18T02:45:03;3.33;;;1.08;;
63499;SDS011;49654;51.142;14.924;2023-02-18T02:47:37;2.53;;;0.77;;
63499;SDS011;49654;51.142;14.924;2023-02-18T02:50:12;5.85;;;1.00;;
63499;SDS011;49654;51.142;14.924;2023-02-18T02:52:44;2.15;;;0.70;;
63499;SDS011;49654;51.142;14.924;2023-02-18T02:55:15;3.10;;;0.80;;
63499;SDS011;49654;51.142;14.924;2023-02-18T02:57:44;5.70;;;1.10;;
63499;SDS011;49654;51.142;14.924;2023-02-18T03:00:16;3.33;;;0.80;;
63499;SDS011;49654;51.142;14.924;2023-02-18T03:02:52;1.85;;;0.77;;
63499;SDS011;49654;51.142;14.924;2023-02-18T03:05:54;1.85;;;0.70;;
63499;SDS011;49654;51.142;14.924;2023-02-18T03:08:38;2.42;;;1.00;;
63499;SDS011;49654;51.142;14.924;2023-02-18T03:11:13;2.17;;;0.93;;
63499;SDS011;49654;51.142;14.924;2023-02-18T03:13:49;2.90;;;0.68;;
63499;SDS011;49654;51.142;14.924;2023-02-18T03:16:30;4.05;;;0.82;;
63499;SDS011;49654;51.142;14.924;2023-02-18T03:19:03;2.60;;;0.98;;
63499;SDS011;49654;51.142;14.924;2023-02-18T03:21:38;3.72;;;0.73;;
63499;SDS011;49654;51.142;14.924;2023-02-18T03:24:12;2.03;;;0.70;;
63499;SDS011;49654;51.142;14.924;2023-02-18T03:26:43;2.73;;;0.93;;
63499;SDS011;49654;51.142;14.924;2023-02-18T03:29:14;2.17;;;0.88;;
63499;SDS011;49654;51.142;14.924;2023-02-18T03:31:44;2.90;;;0.80;;
63499;SDS011;49654;51.142;14.924;2023-02-18T03:34:15;3.20;;;0.88;;
63499;SDS011;49654;51.142;14.924;2023-02-18T03:36:46;2.63;;;0.70;;
63499;SDS011;49654;51.142;14.924;2023-02-18T03:39:14;1.60;;;0.57;;
63499;SDS011;49654;51.142;14.924;2023-02-18T03:41:43;1.27;;;0.57;;
63499;SDS011;49654;51.142;14.924;2023-02-18T03:44:11;1.42;;;0.80;;
63499;SDS011;49654;51.142;14.924;2023-02-18T03:46:39;1.85;;;0.60;;
63499;SDS011;49654;51.142;14.924;2023-02-18T03:49:08;3.63;;;0.80;;
63499;SDS011;49654;51.142;14.924;2023-02-18T03:51:36;2.53;;;0.73;;
63499;SDS011;49654;51.142;14.924;2023-02-18T03:54:05;1.53;;;0.63;;
63499;SDS011;49654;51.142;14.924;2023-02-18T03:56:32;1.25;;;0.68;;
63499;SDS011;49654;51.142;14.924;2023-02-18T03:59:00;2.93;;;0.80;;
63499;SDS011;49654;51.142;14.924;2023-02-18T04:01:27;2.17;;;0.70;;
63499;SDS011;49654;51.142;14.924;2023-02-18T04:03:54;3.47;;;0.80;;
63499;SDS011;49654;51.142;14.924;2023-02-18T04:06:22;1.67;;;0.60;;
63499;SDS011;49654;51.142;14.924;2023-02-18T04:08:49;2.80;;;0.80;;
63499;SDS011;49654;51.142;14.924;2023-02-18T04:11:18;1.67;;;0.70;;
63499;SDS011;49654;51.142;14.924;2023-02-18T04:13:45;2.15;;;0.80;;
63499;SDS011;49654;51.142;14.924;2023-02-18T04:16:12;4.68;;;0.90;;
63499;SDS011;49654;51.142;14.924;2023-02-18T04:18:39;1.92;;;0.50;;
63499;SDS011;49654;51.142;14.924;2023-02-18T04:21:06;2.05;;;0.82;;
63499;SDS011;49654;51.142;14.924;2023-02-18T04:23:33;1.77;;;0.70;;
63499;SDS011;49654;51.142;14.924;2023-02-18T04:25:59;4.78;;;0.73;;
63499;SDS011;49654;51.142;14.924;2023-02-18T04:28:28;4.70;;;1.10;;
63499;SDS011;49654;51.142;14.924;2023-02-18T04:30:55;6.97;;;1.13;;
63499;SDS011;49654;51.142;14.924;2023-02-18T04:33:22;3.13;;;0.98;;
63499;SDS011;49654;51.142;14.924;2023-02-18T04:35:48;2.78;;;0.95;;
63499;SDS011;49654;51.142;14.924;2023-02-18T04:38:15;2.33;;;1.00;;
63499;SDS011;49654;51.142;14.924;2023-02-18T04:40:42;2.17;;;0.90;;
63499;SDS011;49654;51.142;14.924;2023-02-18T04:43:09;4.00;;;0.95;;
63499;SDS011;49654;51.142;14.924;2023-02-18T04:45:37;2.67;;;0.98;;
63499;SDS011;49654;51.142;14.924;2023-02-18T04:48:04;5.90;;;1.30;;
63499;SDS011;49654;51.142;14.924;2023-02-18T04:50:32;4.45;;;1.13;;
63499;SDS011;49654;51.142;14.924;2023-02-18T04:53:00;4.63;;;1.10;;
63499;SDS011;49654;51.142;14.924;2023-02-18T04:55:27;2.22;;;0.98;;
63499;SDS011;49654;51.142;14.924;2023-02-18T04:57:54;7.88;;;1.23;;
63499;SDS011;49654;51.142;14.924;2023-02-18T05:00:21;6.05;;;1.48;;
63499;SDS011;49654;51.142;14.924;2023-02-18T05:02:49;4.13;;;1.10;;
63499;SDS011;49654;51.142;14.924;2023-02-18T05:05:16;2.35;;;1.08;;
63499;SDS011;49654;51.142;14.924;2023-02-18T05:07:43;5.47;;;1.35;;
63499;SDS011;49654;51.142;14.924;2023-02-18T05:10:10;3.17;;;1.10;;
63499;SDS011;49654;51.142;14.924;2023-02-18T05:12:41;4.57;;;1.10;;
63499;SDS011;49654;51.142;14.924;2023-02-18T05:15:08;4.07;;;1.20;;
63499;SDS011;49654;51.142;14.924;2023-02-18T05:17:35;6.97;;;1.35;;
63499;SDS011;49654;51.142;14.924;2023-02-18T05:20:04;5.35;;;1.50;;
63499;SDS011;49654;51.142;14.924;2023-02-18T05:22:32;4.68;;;1.40;;
63499;SDS011;49654;51.142;14.924;2023-02-18T05:24:59;4.65;;;1.40;;
63499;SDS011;49654;51.142;14.924;2023-02-18T05:27:26;3.13;;;1.10;;
63499;SDS011;49654;51.142;14.924;2023-02-18T05:29:53;6.35;;;1.30;;
63499;SDS011;49654;51.142;14.924;2023-02-18T05:32:19;6.35;;;1.30;;
63499;SDS011;49654;51.142;14.924;2023-02-18T05:34:46;3.78;;;1.05;;
63499;SDS011;49654;51.142;14.924;2023-02-18T05:37:15;3.80;;;1.20;;
63499;SDS011;49654;51.142;14.924;2023-02-18T05:39:43;3.03;;;1.10;;
63499;SDS011;49654;51.142;14.924;2023-02-18T05:42:10;3.58;;;1.15;;
63499;SDS011;49654;51.142;14.924;2023-02-18T05:44:36;5.85;;;1.50;;
63499;SDS011;49654;51.142;14.924;2023-02-18T05:47:05;6.60;;;1.75;;
63499;SDS011;49654;51.142;14.924;2023-02-18T05:49:33;4.13;;;1.20;;
63499;SDS011;49654;51.142;14.924;2023-02-18T05:52:02;6.35;;;1.58;;
63499;SDS011;49654;51.142;14.924;2023-02-18T05:54:31;5.03;;;1.20;;
63499;SDS011;49654;51.142;14.924;2023-02-18T05:56:58;4.50;;;1.75;;
63499;SDS011;49654;51.142;14.924;2023-02-18T05:59:25;6.22;;;1.48;;
63499;SDS011;49654;51.142;14.924;2023-02-18T06:01:52;7.20;;;1.58;;
63499;SDS011;49654;51.142;14.924;2023-02-18T06:04:19;4.10;;;1.30;;
63499;SDS011;49654;51.142;14.924;2023-02-18T06:06:46;6.88;;;1.52;;
63499;SDS011;49654;51.142;14.924;2023-02-18T06:09:13;4.55;;;1.30;;
63499;SDS011;49654;51.142;14.924;2023-02-18T06:11:42;5.13;;;1.20;;
63499;SDS011;49654;51.142;14.924;2023-02-18T06:14:09;5.43;;;1.30;;
63499;SDS011;49654;51.142;14.924;2023-02-18T06:16:36;4.63;;;1.40;;
63499;SDS011;49654;51.142;14.924;2023-02-18T06:19:03;4.68;;;1.38;;
63499;SDS011;49654;51.142;14.924;2023-02-18T06:21:30;7.05;;;1.30;;
63499;SDS011;49654;51.142;14.924;2023-02-18T06:23:57;4.03;;;1.40;;
63499;SDS011;49654;51.142;14.924;2023-02-18T06:26:24;10.95;;;1.63;;
63499;SDS011;49654;51.142;14.924;2023-02-18T06:28:53;4.90;;;1.50;;
63499;SDS011;49654;51.142;14.924;2023-02-18T06:31:20;4.95;;;1.40;;
63499;SDS011;49654;51.142;14.924;2023-02-18T06:33:47;4.88;;;1.40;;
63499;SDS011;49654;51.142;14.924;2023-02-18T06:36:14;6.43;;;1.52;;
63499;SDS011;49654;51.142;14.924;2023-02-18T06:38:42;6.68;;;1.70;;
63499;SDS011;49654;51.142;14.924;2023-02-18T06:41:10;5.32;;;1.40;;
63499;SDS011;49654;51.142;14.924;2023-02-18T06:43:38;8.45;;;2.33;;
63499;SDS011;49654;51.142;14.924;2023-02-18T06:46:07;5.95;;;1.40;;
63499;SDS011;49654;51.142;14.924;2023-02-18T06:48:34;7.07;;;1.63;;
63499;SDS011;49654;51.142;14.924;2023-02-18T06:51:01;6.18;;;1.40;;
63499;SDS011;49654;51.142;14.924;2023-02-18T06:53:28;6.57;;;1.98;;
63499;SDS011;49654;51.142;14.924;2023-02-18T06:55:55;8.20;;;1.88;;
63499;SDS011;49654;51.142;14.924;2023-02-18T06:58:23;5.00;;;1.75;;
63499;SDS011;49654;51.142;14.924;2023-02-18T07:00:50;5.35;;;1.73;;
63499;SDS011;49654;51.142;14.924;2023-02-18T07:03:18;6.68;;;1.83;;
63499;SDS011;49654;51.142;14.924;2023-02-18T07:05:45;6.68;;;1.63;;
63499;SDS011;49654;51.142;14.924;2023-02-18T07:08:12;6.55;;;1.80;;
63499;SDS011;49654;51.142;14.924;2023-02-18T07:10:39;4.95;;;1.67;;
63499;SDS011;49654;51.142;14.924;2023-02-18T07:13:06;5.60;;;1.77;;
63499;SDS011;49654;51.142;14.924;2023-02-18T07:15:33;6.18;;;2.00;;
63499;SDS011;49654;51.142;14.924;2023-02-18T07:18:00;7.95;;;2.22;;
63499;SDS011;49654;51.142;14.924;2023-02-18T07:20:28;7.18;;;1.90;;
63499;SDS011;49654;51.142;14.924;2023-02-18T07:22:55;6.13;;;2.17;;
63499;SDS011;49654;51.142;14.924;2023-02-18T07:25:22;7.95;;;2.80;;
63499;SDS011;49654;51.142;14.924;2023-02-18T07:27:49;7.80;;;1.88;;
63499;SDS011;49654;51.142;14.924;2023-02-18T07:30:17;7.53;;;1.75;;
63499;SDS011;49654;51.142;14.924;2023-02-18T07:32:44;7.70;;;1.70;;
63499;SDS011;49654;51.142;14.924;2023-02-18T07:35:12;5.30;;;1.75;;
63499;SDS011;49654;51.142;14.924;2023-02-18T07:37:43;6.15;;;1.90;;
63499;SDS011;49654;51.142;14.924;2023-02-18T07:40:12;9.32;;;2.50;;
63499;SDS011;49654;51.142;14.924;2023-02-18T07:42:40;11.23;;;2.47;;
63499;SDS011;49654;51.142;14.924;2023-02-18T07:45:07;6.55;;;2.13;;
63499;SDS011;49654;51.142;14.924;2023-02-18T07:47:35;9.95;;;2.78;;
63499;SDS011;49654;51.142;14.924;2023-02-18T07:50:02;7.80;;;2.50;;
63499;SDS011;49654;51.142;14.924;2023-02-18T07:52:30;8.37;;;2.70;;
63499;SDS011;49654;51.142;14.924;2023-02-18T07:54:58;7.75;;;2.50;;
63499;SDS011;49654;51.142;14.924;2023-02-18T07:57:25;9.85;;;2.78;;
63499;SDS011;49654;51.142;14.924;2023-02-18T07:59:52;7.68;;;2.92;;
63499;SDS011;49654;51.142;14.924;2023-02-18T08:02:20;12.33;;;3.60;;
63499;SDS011;49654;51.142;14.924;2023-02-18T08:04:49;9.77;;;2.90;;
63499;SDS011;49654;51.142;14.924;2023-02-18T08:07:16;10.93;;;2.65;;
63499;SDS011;49654;51.142;14.924;2023-02-18T08:09:44;13.32;;;2.90;;
63499;SDS011;49654;51.142;14.924;2023-02-18T08:12:14;8.88;;;2.35;;
63499;SDS011;49654;51.142;14.924;2023-02-18T08:14:41;5.00;;;2.40;;
63499;SDS011;49654;51.142;14.924;2023-02-18T08:17:08;9.67;;;3.03;;
63499;SDS011;49654;51.142;14.924;2023-02-18T08:19:35;8.00;;;2.60;;
63499;SDS011;49654;51.142;14.924;2023-02-18T08:22:02;10.50;;;2.80;;
63499;SDS011;49654;51.142;14.924;2023-02-18T08:24:29;8.57;;;2.80;;
63499;SDS011;49654;51.142;14.924;2023-02-18T08:26:56;9.95;;;3.10;;
63499;SDS011;49654;51.142;14.924;2023-02-18T08:29:24;11.03;;;2.93;;
63499;SDS011;49654;51.142;14.924;2023-02-18T08:31:51;7.37;;;2.60;;
63499;SDS011;49654;51.142;14.924;2023-02-18T08:34:19;8.07;;;2.57;;
63499;SDS011;49654;51.142;14.924;2023-02-18T08:36:46;10.07;;;3.03;;
63499;SDS011;49654;51.142;14.924;2023-02-18T08:39:13;9.47;;;3.03;;
63499;SDS011;49654;51.142;14.924;2023-02-18T08:41:40;10.00;;;2.93;;
63499;SDS011;49654;51.142;14.924;2023-02-18T08:44:07;9.63;;;3.10;;
63499;SDS011;49654;51.142;14.924;2023-02-18T08:46:35;8.77;;;3.20;;
63499;SDS011;49654;51.142;14.924;2023-02-18T08:49:02;10.98;;;3.72;;
63499;SDS011;49654;51.142;14.924;2023-02-18T08:51:30;11.93;;;3.77;;
63499;SDS011;49654;51.142;14.924;2023-02-18T08:53:57;11.30;;;3.50;;
63499;SDS011;49654;51.142;14.924;2023-02-18T08:56:24;9.97;;;4.23;;
63499;SDS011;49654;51.142;14.924;2023-02-18T08:58:51;10.85;;;4.55;;
63499;SDS011;49654;51.142;14.924;2023-02-18T09:01:18;34.00;;;22.30;;
63499;SDS011;49654;51.142;14.924;2023-02-18T09:03:46;20.45;;;7.07;;
63499;SDS011;49654;51.142;14.924;2023-02-18T09:06:13;25.95;;;20.63;;
63499;SDS011;49654;51.142;14.924;2023-02-18T09:08:40;17.98;;;11.50;;
63499;SDS011;49654;51.142;14.924;2023-02-18T09:11:07;11.77;;;5.57;;
63499;SDS011;49654;51.142;14.924;2023-02-18T09:13:35;9.60;;;4.30;;
63499;SDS011;49654;51.142;14.924;2023-02-18T09:16:03;6.35;;;3.85;;
63499;SDS011;49654;51.142;14.924;2023-02-18T09:18:32;10.88;;;4.70;;
63499;SDS011;49654;51.142;14.924;2023-02-18T09:21:03;10.48;;;3.95;;
63499;SDS011;49654;51.142;14.924;2023-02-18T09:23:33;12.45;;;5.20;;
63499;SDS011;49654;51.142;14.924;2023-02-18T09:26:02;11.15;;;4.60;;
63499;SDS011;49654;51.142;14.924;2023-02-18T09:28:30;14.05;;;5.90;;
63499;SDS011;49654;51.142;14.924;2023-02-18T09:30:57;8.60;;;4.15;;
63499;SDS011;49654;51.142;14.924;2023-02-18T09:33:29;10.43;;;4.50;;
63499;SDS011;49654;51.142;14.924;2023-02-18T09:35:56;11.13;;;4.35;;
63499;SDS011;49654;51.142;14.924;2023-02-18T09:38:25;8.82;;;5.03;;
63499;SDS011;49654;51.142;14.924;2023-02-18T09:40:52;8.65;;;4.07;;
63499;SDS011;49654;51.142;14.924;2023-02-18T09:43:25;10.32;;;4.20;;
63499;SDS011;49654;51.142;14.924;2023-02-18T09:45:54;8.27;;;4.30;;
63499;SDS011;49654;51.142;14.924;2023-02-18T09:48:24;9.27;;;4.45;;
63499;SDS011;49654;51.142;14.924;2023-02-18T09:50:53;8.98;;;4.57;;
63499;SDS011;49654;51.142;14.924;2023-02-18T09:53:21;8.20;;;4.50;;
63499;SDS011;49654;51.142;14.924;2023-02-18T09:55:51;8.43;;;4.60;;
63499;SDS011;49654;51.142;14.924;2023-02-18T09:58:20;8.25;;;4.90;;
63499;SDS011;49654;51.142;14.924;2023-02-18T10:00:51;10.82;;;4.72;;
63499;SDS011;49654;51.142;14.924;2023-02-18T10:03:22;7.93;;;5.55;;
63499;SDS011;49654;51.142;14.924;2023-02-18T10:05:54;14.27;;;7.00;;
63499;SDS011;49654;51.142;14.924;2023-02-18T10:08:24;9.57;;;6.38;;
63499;SDS011;49654;51.142;14.924;2023-02-18T10:10:54;8.57;;;5.55;;
63499;SDS011;49654;51.142;14.924;2023-02-18T10:13:22;7.10;;;5.55;;
63499;SDS011;49654;51.142;14.924;2023-02-18T10:15:51;9.05;;;6.03;;
63499;SDS011;49654;51.142;14.924;2023-02-18T10:18:25;7.30;;;5.22;;
63499;SDS011;49654;51.142;14.924;2023-02-18T10:21:00;9.45;;;6.20;;
63499;SDS011;49654;51.142;14.924;2023-02-18T10:23:32;10.85;;;7.80;;
63499;SDS011;49654;51.142;14.924;2023-02-18T10:26:04;8.88;;;6.38;;
63499;SDS011;49654;51.142;14.924;2023-02-18T10:28:33;8.10;;;6.65;;
63499;SDS011;49654;51.142;14.924;2023-02-18T10:31:02;8.23;;;6.70;;
63499;SDS011;49654;51.142;14.924;2023-02-18T10:33:35;8.20;;;6.43;;
63499;SDS011;49654;51.142;14.924;2023-02-18T10:36:21;9.60;;;7.90;;
63499;SDS011;49654;51.142;14.924;2023-02-18T10:38:56;11.07;;;9.38;;
63499;SDS011;49654;51.142;14.924;2023-02-18T10:41:33;8.60;;;6.95;;
63499;SDS011;49654;51.142;14.924;2023-02-18T10:44:09;7.30;;;5.75;;
63499;SDS011;49654;51.142;14.924;2023-02-18T10:46:43;7.35;;;5.97;;
63499;SDS011;49654;51.142;14.924;2023-02-18T10:49:27;7.72;;;5.78;;
63499;SDS011;49654;51.142;14.924;2023-02-18T10:52:08;7.22;;;5.55;;
63499;SDS011;49654;51.142;14.924;2023-02-18T10:54:48;6.80;;;5.63;;
63499;SDS011;49654;51.142;14.924;2023-02-18T10:57:19;9.35;;;6.40;;
63499;SDS011;49654;51.142;14.924;2023-02-18T10:59:53;8.80;;;6.90;;
63499;SDS011;49654;51.142;14.924;2023-02-18T11:02:23;7.22;;;6.20;;
63499;SDS011;49654;51.142;14.924;2023-02-18T11:04:54;8.35;;;6.88;;
63499;SDS011;49654;51.142;14.924;2023-02-18T11:07:24;9.73;;;7.70;;
63499;SDS011;49654;51.142;14.924;2023-02-18T11:09:55;8.80;;;7.35;;
63499;SDS011;49654;51.142;14.924;2023-02-18T11:12:26;8.10;;;7.20;;
63499;SDS011;49654;51.142;14.924;2023-02-18T11:15:03;9.07;;;7.05;;
63499;SDS011;49654;51.142;14.924;2023-02-18T11:17:33;9.32;;;8.15;;
63499;SDS011;49654;51.142;14.924;2023-02-18T11:20:04;7.50;;;6.68;;
63499;SDS011;49654;51.142;14.924;2023-02-18T11:22:48;9.55;;;6.50;;
63499;SDS011;49654;51.142;14.924;2023-02-18T11:25:18;9.20;;;7.40;;
63499;SDS011;49654;51.142;14.924;2023-02-18T11:27:49;8.23;;;7.18;;
63499;SDS011;49654;51.142;14.924;2023-02-18T11:30:18;9.00;;;7.50;;
63499;SDS011;49654;51.142;14.924;2023-02-18T11:32:49;9.43;;;7.28;;
63499;SDS011;49654;51.142;14.924;2023-02-18T11:35:20;13.70;;;8.00;;
63499;SDS011;49654;51.142;14.924;2023-02-18T11:37:49;10.13;;;8.15;;
63499;SDS011;49654;51.142;14.924;2023-02-18T11:40:21;12.68;;;9.35;;
63499;SDS011;49654;51.142;14.924;2023-02-18T11:42:50;13.10;;;8.68;;
63499;SDS011;49654;51.142;14.924;2023-02-18T11:45:28;13.02;;;8.80;;
63499;SDS011;49654;51.142;14.924;2023-02-18T11:47:58;11.52;;;7.75;;
63499;SDS011;49654;51.142;14.924;2023-02-18T11:50:29;10.07;;;7.78;;
63499;SDS011;49654;51.142;14.924;2023-02-18T11:52:57;11.75;;;9.00;;
63499;SDS011;49654;51.142;14.924;2023-02-18T11:55:25;11.52;;;8.88;;
63499;SDS011;49654;51.142;14.924;2023-02-18T11:57:57;11.90;;;8.38;;
63499;SDS011;49654;51.142;14.924;2023-02-18T12:00:30;10.85;;;9.18;;
63499;SDS011;49654;51.142;14.924;2023-02-18T12:03:06;11.43;;;8.63;;
63499;SDS011;49654;51.142;14.924;2023-02-18T12:05:39;7.45;;;6.22;;
63499;SDS011;49654;51.142;14.924;2023-02-18T12:08:09;5.55;;;5.05;;
63499;SDS011;49654;51.142;14.924;2023-02-18T12:10:41;8.07;;;4.80;;
63499;SDS011;49654;51.142;14.924;2023-02-18T12:13:18;4.75;;;4.25;;
63499;SDS011;49654;51.142;14.924;2023-02-18T12:15:52;4.35;;;3.88;;
63499;SDS011;49654;51.142;14.924;2023-02-18T12:18:52;11.63;;;8.93;;
63499;SDS011;49654;51.142;14.924;2023-02-18T12:21:29;4.38;;;3.40;;
63499;SDS011;49654;51.142;14.924;2023-02-18T12:24:05;3.95;;;2.97;;
63499;SDS011;49654;51.142;14.924;2023-02-18T12:26:43;2.63;;;2.42;;
63499;SDS011;49654;51.142;14.924;2023-02-18T12:29:23;3.10;;;2.75;;
63499;SDS011;49654;51.142;14.924;2023-02-18T12:32:04;3.25;;;2.70;;
63499;SDS011;49654;51.142;14.924;2023-02-18T12:34:45;2.80;;;2.10;;
63499;SDS011;49654;51.142;14.924;2023-02-18T12:37:39;2.58;;;2.38;;
63499;SDS011;49654;51.142;14.924;2023-02-18T12:40:30;2.03;;;1.77;;
63499;SDS011;49654;51.142;14.924;2023-02-18T12:43:13;2.05;;;1.80;;
63499;SDS011;49654;51.142;14.924;2023-02-18T12:45:52;1.85;;;1.50;;
63499;SDS011;49654;51.142;14.924;2023-02-18T12:48:36;2.47;;;1.90;;
63499;SDS011;49654;51.142;14.924;2023-02-18T12:51:23;1.48;;;1.33;;
63499;SDS011;49654;51.142;14.924;2023-02-18T12:54:00;2.70;;;1.60;;
63499;SDS011;49654;51.142;14.924;2023-02-18T12:56:46;2.28;;;1.52;;
63499;SDS011;49654;51.142;14.924;2023-02-18T12:59:30;2.05;;;1.90;;
63499;SDS011;49654;51.142;14.924;2023-02-18T13:02:10;1.23;;;1.00;;
63499;SDS011;49654;51.142;14.924;2023-02-18T13:04:56;0.93;;;0.90;;
63499;SDS011;49654;51.142;14.924;2023-02-18T13:10:41;1.23;;;1.00;;
63499;SDS011;49654;51.142;14.924;2023-02-18T13:13:15;1.00;;;0.80;;
63499;SDS011;49654;51.142;14.924;2023-02-18T13:15:45;1.17;;;0.98;;
63499;SDS011;49654;51.142;14.924;2023-02-18T13:18:19;1.00;;;0.90;;
63499;SDS011;49654;51.142;14.924;2023-02-18T13:20:48;0.88;;;0.80;;
63499;SDS011;49654;51.142;14.924;2023-02-18T13:23:18;2.67;;;0.90;;
63499;SDS011;49654;51.142;14.924;2023-02-18T13:25:48;1.38;;;1.00;;
63499;SDS011;49654;51.142;14.924;2023-02-18T13:28:22;1.38;;;0.77;;
63499;SDS011;49654;51.142;14.924;2023-02-18T13:30:58;1.42;;;1.05;;
63499;SDS011;49654;51.142;14.924;2023-02-18T13:33:34;1.08;;;1.00;;
63499;SDS011;49654;51.142;14.924;2023-02-18T13:36:05;1.40;;;1.00;;
63499;SDS011;49654;51.142;14.924;2023-02-18T13:38:48;0.85;;;0.85;;
63499;SDS011;49654;51.142;14.924;2023-02-18T13:41:21;0.93;;;0.82;;
63499;SDS011;49654;51.142;14.924;2023-02-18T13:43:50;4.47;;;3.90;;
63499;SDS011;49654;51.142;14.924;2023-02-18T13:46:18;1.73;;;1.27;;
63499;SDS011;49654;51.142;14.924;2023-02-18T13:48:48;1.27;;;1.20;;
63499;SDS011;49654;51.142;14.924;2023-02-18T13:51:25;1.00;;;0.90;;
63499;SDS011;49654;51.142;14.924;2023-02-18T13:53:57;1.90;;;0.90;;
63499;SDS011;49654;51.142;14.924;2023-02-18T13:56:29;1.75;;;1.02;;
63499;SDS011;49654;51.142;14.924;2023-02-18T13:58:58;3.55;;;1.40;;
63499;SDS011;49654;51.142;14.924;2023-02-18T14:01:36;1.40;;;1.20;;
63499;SDS011;49654;51.142;14.924;2023-02-18T14:07:17;1.67;;;1.13;;
63499;SDS011;49654;51.142;14.924;2023-02-18T14:09:51;2.05;;;1.17;;
63499;SDS011;49654;51.142;14.924;2023-02-18T14:12:35;1.30;;;1.20;;
63499;SDS011;49654;51.142;14.924;2023-02-18T14:18:07;1.10;;;1.00;;
63499;SDS011;49654;51.142;14.924;2023-02-18T14:20:45;1.40;;;1.20;;
63499;SDS011;49654;51.142;14.924;2023-02-18T14:26:07;1.08;;;0.90;;
63499;SDS011;49654;51.142;14.924;2023-02-18T14:28:37;1.10;;;0.98;;
63499;SDS011;49654;51.142;14.924;2023-02-18T14:31:16;1.15;;;1.00;;
63499;SDS011;49654;51.142;14.924;2023-02-18T14:33:53;1.00;;;0.90;;
63499;SDS011;49654;51.142;14.924;2023-02-18T14:36:41;1.10;;;1.00;;
63499;SDS011;49654;51.142;14.924;2023-02-18T14:39:22;1.40;;;1.10;;
63499;SDS011;49654;51.142;14.924;2023-02-18T14:42:01;1.42;;;1.10;;
63499;SDS011;49654;51.142;14.924;2023-02-18T14:44:38;0.90;;;0.90;;
63499;SDS011;49654;51.142;14.924;2023-02-18T14:47:21;1.48;;;1.00;;
63499;SDS011;49654;51.142;14.924;2023-02-18T14:49:54;1.00;;;0.90;;
63499;SDS011;49654;51.142;14.924;2023-02-18T14:52:28;1.20;;;0.80;;
63499;SDS011;49654;51.142;14.924;2023-02-18T14:54:57;1.10;;;1.00;;
63499;SDS011;49654;51.142;14.924;2023-02-18T14:57:30;0.90;;;0.80;;
63499;SDS011;49654;51.142;14.924;2023-02-18T15:00:02;2.88;;;0.90;;
63499;SDS011;49654;51.142;14.924;2023-02-18T15:02:34;2.08;;;1.00;;
63499;SDS011;49654;51.142;14.924;2023-02-18T15:05:13;1.92;;;1.10;;
63499;SDS011;49654;51.142;14.924;2023-02-18T15:07:54;1.70;;;1.10;;
63499;SDS011;49654;51.142;14.924;2023-02-18T15:10:30;0.80;;;0.80;;